ENCN

Kristiansand Airport

Kjevik, Norway
TAF ENCN 170200Z 1704/1712 03007KT CAVOK
Issued Valid From Valid To
Jan-17 @ 02:00 UTC
(3 hours ago)
Jan-17 @ 04:00 UTC
(47 minutes ago)
Jan-17 @ 12:00 UTC
(in 7 hours)
Jan-17 @ 04:00 to Jan-17 @ 12:00
TAF ENCN 170200Z 1704/1712 03007KT CAVOK
Wind Visibility Clouds Conditions
30° at 7 knots 10,000+ meters
  • No significant clouds
TAF ENCN 170200Z 1704/1712 03007KT CAVOK
Issued Jan-17 @ 02:00 UTC
(3 hours ago)
Valid From Jan-17 @ 04:00 UTC
(47 minutes ago)
Valid To Jan-17 @ 12:00 UTC
(in 7 hours)
Jan-17 @ 04:00 - Jan-17 @ 12:00
Wind Visibility
30° at 7 knots 10,000+ meters
Clouds
  • No significant clouds
Conditions